createdAt,value
2023-10-06T00:09:11.243Z,13.51
2023-10-06T00:13:17.109Z,13.50
2023-10-06T00:16:16.473Z,13.56
2023-10-06T00:19:04.026Z,13.53
2023-10-06T01:57:16.226Z,12.78
2023-10-06T02:44:16.573Z,12.56
2023-10-06T04:58:31.191Z,12.18
2023-10-06T05:01:34.479Z,12.20
2023-10-06T05:12:34.893Z,12.00
2023-10-06T05:17:33.751Z,12.01
2023-10-06T05:19:13.368Z,12.02
2023-10-06T05:24:44.685Z,12.04
2023-10-06T05:27:22.790Z,12.05
2023-10-06T05:29:54.180Z,12.00
2023-10-06T05:32:25.874Z,11.94
2023-10-06T05:34:54.627Z,11.92
2023-10-06T05:37:23.098Z,11.91
2023-10-06T05:39:51.581Z,11.93
2023-10-06T05:42:21.858Z,11.92
2023-10-06T05:44:50.681Z,11.90
2023-10-06T05:47:19.303Z,11.85
2023-10-06T05:49:51.194Z,11.85
2023-10-06T05:52:21.463Z,11.82
2023-10-06T05:54:51.282Z,11.82
2023-10-06T05:57:23.146Z,11.82
2023-10-06T05:59:54.702Z,11.86
2023-10-06T06:02:26.748Z,11.88
2023-10-06T06:04:59.296Z,11.87
2023-10-06T06:07:29.494Z,11.84
2023-10-06T06:09:59.792Z,11.88
2023-10-06T06:12:29.197Z,11.82
2023-10-06T06:15:01.299Z,11.76
2023-10-06T06:17:36.749Z,11.77
2023-10-06T06:24:21.925Z,11.96
2023-10-06T06:26:57.054Z,11.97
2023-10-06T06:29:31.298Z,12.05
2023-10-06T06:41:59.536Z,12.18
2023-10-06T06:44:55.120Z,12.22
2023-10-06T06:50:57.715Z,12.14
2023-10-06T06:53:32.098Z,11.97
2023-10-06T06:56:07.424Z,11.82
2023-10-06T06:59:58.317Z,11.75
2023-10-06T07:02:30.578Z,11.86
2023-10-06T07:04:59.001Z,11.91
2023-10-06T07:07:30.190Z,11.84
2023-10-06T07:10:08.023Z,11.83
2023-10-06T07:12:36.399Z,11.75
2023-10-06T07:15:04.840Z,11.83
2023-10-06T07:17:34.796Z,11.95
2023-10-06T07:20:30.708Z,12.00
2023-10-06T07:23:03.978Z,12.15
2023-10-06T07:26:04.338Z,12.33
2023-10-06T07:28:35.470Z,12.50
2023-10-06T07:31:05.766Z,12.64
2023-10-06T07:33:35.827Z,12.75
2023-10-06T07:36:15.168Z,12.88
2023-10-06T07:38:53.019Z,12.93
2023-10-06T07:41:24.209Z,12.90
2023-10-06T07:43:53.789Z,13.00
2023-10-06T07:46:22.682Z,13.16
2023-10-06T07:48:52.814Z,13.12
2023-10-06T07:51:21.606Z,13.10
2023-10-06T07:53:53.252Z,13.15
2023-10-06T07:56:21.366Z,13.25
2023-10-06T07:58:54.329Z,13.22
2023-10-06T08:01:25.717Z,13.33
2023-10-06T08:03:55.679Z,13.61
2023-10-06T08:06:25.250Z,13.77
2023-10-06T08:09:06.830Z,14.04
2023-10-06T08:11:40.659Z,13.96
2023-10-06T08:14:08.693Z,13.86
2023-10-06T08:16:38.600Z,13.94
2023-10-06T08:19:07.956Z,14.11
2023-10-06T08:21:35.957Z,14.39
2023-10-06T08:24:03.764Z,14.59
2023-10-06T08:26:31.512Z,14.65
2023-10-06T08:29:00.668Z,14.78
2023-10-06T08:31:29.960Z,14.72
2023-10-06T08:34:00.680Z,14.79
2023-10-06T08:36:31.123Z,15.00
2023-10-06T08:38:59.700Z,15.52
2023-10-06T08:41:35.255Z,15.49
2023-10-06T08:44:05.074Z,15.72
2023-10-06T08:46:36.101Z,16.96
2023-10-06T08:49:04.202Z,18.67
2023-10-06T08:51:33.978Z,20.50
2023-10-06T08:54:04.326Z,21.88
2023-10-06T08:56:35.132Z,22.57
2023-10-06T08:59:02.931Z,23.54
2023-10-06T09:01:31.346Z,24.55
2023-10-06T09:04:04.648Z,24.83
2023-10-06T09:06:33.958Z,24.43
2023-10-06T09:09:02.600Z,23.58
2023-10-06T09:11:39.990Z,22.32
2023-10-06T09:14:08.585Z,21.26
2023-10-06T09:16:50.149Z,20.37
2023-10-06T09:19:18.956Z,20.18
2023-10-06T09:22:05.736Z,20.57
2023-10-06T09:24:33.770Z,21.61
2023-10-06T09:27:06.492Z,23.15
2023-10-06T09:29:35.814Z,24.20
2023-10-06T09:32:06.087Z,25.35
2023-10-06T09:34:33.925Z,27.41
2023-10-06T09:37:19.961Z,27.54
2023-10-06T09:39:57.645Z,27.04
2023-10-06T09:42:28.808Z,26.18
2023-10-06T09:45:13.105Z,24.72
2023-10-06T09:47:49.813Z,22.86
2023-10-06T09:50:19.826Z,21.51
2023-10-06T09:52:49.794Z,20.61
2023-10-06T09:55:21.734Z,20.00
2023-10-06T09:57:51.285Z,19.51
2023-10-06T10:00:20.739Z,19.13
2023-10-06T10:02:50.273Z,18.97
2023-10-06T10:05:32.021Z,18.71
2023-10-06T10:08:03.709Z,18.61
2023-10-06T10:10:33.708Z,18.50
2023-10-06T10:13:21.241Z,18.50
2023-10-06T10:16:07.537Z,18.57
2023-10-06T10:18:39.469Z,20.67
2023-10-06T10:21:10.350Z,23.70
2023-10-06T10:23:41.532Z,23.51
2023-10-06T10:26:17.384Z,22.41
2023-10-06T10:28:45.609Z,21.36
2023-10-06T10:31:18.730Z,20.49
2023-10-06T10:33:58.140Z,19.95
2023-10-06T10:36:40.342Z,19.94
2023-10-06T10:39:18.066Z,19.46
2023-10-06T10:41:48.981Z,19.34
2023-10-06T10:44:27.315Z,19.63
2023-10-06T10:47:10.956Z,19.71
2023-10-06T10:53:22.636Z,19.37
2023-10-06T10:55:54.132Z,19.27
2023-10-06T11:02:38.074Z,19.22
2023-10-06T11:05:41.480Z,19.46
2023-10-06T11:08:25.060Z,19.61
2023-10-06T11:11:08.201Z,19.61
2023-10-06T11:14:42.187Z,20.62
2023-10-06T11:17:29.263Z,23.41
2023-10-06T11:36:34.062Z,26.89
2023-10-06T12:37:11.045Z,20.88
2023-10-06T13:19:16.578Z,19.60
2023-10-06T13:21:50.490Z,19.64
2023-10-06T13:31:53.532Z,19.58
2023-10-06T14:52:32.635Z,19.55
2023-10-06T14:58:36.128Z,19.50
2023-10-06T15:01:44.304Z,19.50
2023-10-06T15:04:29.050Z,19.38
2023-10-06T15:07:26.738Z,19.31
2023-10-06T15:14:58.058Z,19.14
2023-10-06T16:13:36.199Z,18.70
2023-10-06T16:28:07.629Z,18.31
2023-10-06T16:49:39.000Z,17.80
2023-10-06T18:12:25.779Z,16.59
2023-10-06T18:15:43.422Z,16.56
2023-10-06T18:18:15.388Z,16.56
2023-10-06T18:24:14.866Z,16.50
2023-10-06T18:26:43.038Z,16.48
2023-10-06T18:29:12.538Z,16.47
2023-10-06T18:31:40.612Z,16.49
2023-10-06T18:34:10.741Z,16.45
2023-10-06T18:36:38.601Z,16.41
2023-10-06T18:39:28.693Z,16.39
2023-10-06T18:41:56.886Z,16.37
2023-10-06T18:44:27.591Z,16.35
2023-10-06T18:46:56.281Z,16.35
2023-10-06T18:49:24.225Z,16.35
2023-10-06T18:52:03.804Z,16.33
2023-10-06T18:54:53.898Z,16.32
2023-10-06T18:57:26.050Z,16.30
2023-10-06T19:03:31.750Z,16.22
2023-10-06T19:06:05.869Z,16.21
2023-10-06T19:08:41.048Z,16.19
2023-10-06T19:14:12.253Z,16.17
2023-10-06T19:16:44.849Z,16.17
2023-10-06T19:19:44.438Z,16.09
2023-10-06T19:22:45.739Z,15.98
2023-10-06T19:25:22.038Z,15.90
2023-10-06T19:35:19.745Z,15.73
2023-10-06T19:38:08.990Z,15.67
2023-10-06T19:45:40.808Z,15.67
2023-10-06T20:03:49.813Z,15.64
2023-10-06T20:07:12.063Z,15.51
2023-10-06T20:23:58.787Z,15.74
2023-10-06T20:26:49.791Z,15.73
2023-10-06T20:29:47.132Z,15.78
2023-10-06T20:46:18.254Z,15.54
2023-10-06T20:48:47.813Z,15.53
2023-10-06T20:51:17.528Z,15.56
2023-10-06T20:53:45.682Z,15.60
2023-10-06T20:56:15.041Z,15.62
2023-10-06T20:58:42.952Z,15.64
2023-10-06T21:01:11.166Z,15.60
2023-10-06T21:03:40.604Z,15.56
2023-10-06T21:06:13.708Z,15.55
2023-10-06T21:08:41.795Z,15.56
2023-10-06T21:11:10.006Z,15.61
2023-10-06T21:13:38.093Z,15.63
2023-10-06T21:16:06.787Z,15.62
2023-10-06T21:18:38.402Z,15.66
2023-10-06T21:21:07.896Z,15.64
2023-10-06T21:23:36.128Z,15.60
2023-10-06T21:26:04.242Z,15.53
2023-10-06T21:28:32.088Z,15.45
2023-10-06T21:34:58.063Z,15.30
2023-10-06T21:44:01.819Z,15.15
2023-10-06T21:47:19.106Z,15.11
2023-10-06T21:50:41.049Z,15.12
2023-10-06T22:24:55.282Z,14.50
2023-10-06T22:27:33.642Z,14.47
2023-10-06T22:30:12.861Z,14.50
2023-10-06T22:32:46.077Z,14.44
2023-10-06T23:03:04.943Z,14.25
2023-10-06T23:09:05.133Z,14.19
2023-10-06T23:19:43.226Z,14.14
2023-10-06T23:25:44.586Z,14.01
2023-10-06T23:28:46.814Z,13.94
2023-10-06T23:41:30.950Z,13.76
2023-10-06T23:48:34.378Z,13.87
